PWSweather.com
Personal Weather Stations
Station Observations
MENWDWX1
Menstrie, ScotlandGB

MenstrieScotlandGB

Lat: 56.148322, Lon: -3.85483

Elevation: 62

Station Type: Davis Vantage Pro 2

Latest ConditionsUpdated 11:00:01 PM GMT Wednesday, Oct 16, 2019
Currently Today's Max Today's Min Today's Average
Temperature 40.5°F4.7°C 56.8°F13.8°C 40.5°F4.7°C 49.9°F9.9°C
Dew Point 36.6°F2.6°C 49.5°F9.7°C 36.6°F2.6°C 45.1°F7.3°C
Winds 3.5 mph E5.6 kmh E 10.4 mph -16.7 kmh - - 3.9 mph 6.3 kmh
Wind Gusts 3.5 mph5.6 kmh 15.0 mph24.1 kmh - -
Humidity 86% 87% 72% 84%
Pressure 29.52 in999.7 mb 29.53 in1000.0 mb 29.35 in993.9 mb -
Hour Temp Dew Point Humidity Winds Wind Gusts Pressure Precip Precip Rate Daily Precip Total
11:00 PM 40.5°F4.7°C 36.6°F2.6°C 86% 3.5 mph E5.6 kmh E 3.5 mph5.6 kmh 29.52 in999.7 mb - 0.00 in0.0 mm 1.74 in44.2 mm
10:55 PM 40.6°F4.8°C 36.7°F2.6°C 86% 2.3 mph ENE3.7 kmh ENE 3.5 mph5.6 kmh 29.53 in1000.0 mb - 0.00 in0.0 mm 0.14 in3.6 mm
10:50 PM 40.6°F4.8°C 36.7°F2.6°C 86% 3.5 mph E5.6 kmh E 3.5 mph5.6 kmh 29.53 in1000.0 mb - 0.00 in0.0 mm 0.14 in3.6 mm
10:45 PM 40.7°F4.8°C 36.8°F2.7°C 86% 2.3 mph NE3.7 kmh NE 3.5 mph5.6 kmh 29.53 in1000.0 mb - 0.00 in0.0 mm 0.14 in3.6 mm
10:40 PM 40.9°F4.9°C 37.0°F2.8°C 86% 3.5 mph ENE5.6 kmh ENE 3.5 mph5.6 kmh 29.53 in1000.0 mb - 0.00 in0.0 mm 0.14 in3.6 mm
10:35 PM 40.9°F4.9°C 37.0°F2.8°C 86% 2.3 mph NE3.7 kmh NE 3.5 mph5.6 kmh 29.53 in1000.0 mb - 0.00 in0.0 mm 0.14 in3.6 mm
10:30 PM 41.0°F5.0°C 37.1°F2.8°C 86% 2.3 mph NE3.7 kmh NE 2.3 mph3.7 kmh 29.53 in1000.0 mb - 0.00 in0.0 mm 0.14 in3.6 mm
10:25 PM 41.0°F5.0°C 37.1°F2.8°C 86% 2.3 mph NE3.7 kmh NE 3.5 mph5.6 kmh 29.53 in1000.0 mb - 0.00 in0.0 mm 0.14 in3.6 mm
10:20 PM 41.1°F5.1°C 37.2°F2.9°C 86% 2.3 mph NE3.7 kmh NE 4.6 mph7.4 kmh 29.53 in1000.0 mb - 0.00 in0.0 mm 0.14 in3.6 mm
10:15 PM 41.4°F5.2°C 37.6°F3.1°C 86% 3.5 mph NE5.6 kmh NE 3.5 mph5.6 kmh 29.53 in1000.0 mb - 0.00 in0.0 mm 0.14 in3.6 mm
10:10 PM 41.8°F5.4°C 37.9°F3.3°C 86% 3.5 mph ENE5.6 kmh ENE 3.5 mph5.6 kmh 29.53 in1000.0 mb - 0.00 in0.0 mm 0.14 in3.6 mm
10:05 PM 42.1°F5.6°C 38.2°F3.4°C 86% 2.3 mph ENE3.7 kmh ENE 3.5 mph5.6 kmh 29.52 in999.7 mb - 0.00 in0.0 mm 0.14 in3.6 mm
10:00 PM 42.4°F5.8°C 38.5°F3.6°C 86% 2.3 mph ENE3.7 kmh ENE 3.5 mph5.6 kmh 29.52 in999.7 mb - 0.00 in0.0 mm 0.14 in3.6 mm
09:55 PM 42.4°F5.8°C 38.5°F3.6°C 86% 2.3 mph ENE3.7 kmh ENE 3.5 mph5.6 kmh 29.52 in999.7 mb - 0.00 in0.0 mm 0.14 in3.6 mm
09:50 PM 42.3°F5.7°C 38.4°F3.6°C 86% 2.3 mph ENE3.7 kmh ENE 3.5 mph5.6 kmh 29.52 in999.7 mb - 0.00 in0.0 mm 0.14 in3.6 mm
09:45 PM 42.0°F5.6°C 38.1°F3.4°C 86% 2.3 mph NE3.7 kmh NE 3.5 mph5.6 kmh 29.52 in999.7 mb - 0.00 in0.0 mm 0.14 in3.6 mm
09:40 PM 41.9°F5.5°C 38.0°F3.3°C 86% 2.3 mph NE3.7 kmh NE 3.5 mph5.6 kmh 29.52 in999.7 mb - 0.00 in0.0 mm 0.14 in3.6 mm
09:35 PM 41.9°F5.5°C 38.0°F3.3°C 86% Calm Calm 3.5 mph5.6 kmh 29.52 in999.7 mb - 0.00 in0.0 mm 0.14 in3.6 mm
09:30 PM 42.1°F5.6°C 38.2°F3.4°C 86% Calm Calm -- 29.52 in999.7 mb - 0.00 in0.0 mm 0.14 in3.6 mm
09:25 PM 42.2°F5.7°C 38.3°F3.5°C 86% Calm Calm -- 29.52 in999.7 mb - 0.00 in0.0 mm 0.14 in3.6 mm
09:20 PM 42.3°F5.7°C 38.4°F3.6°C 86% Calm Calm -- 29.52 in999.7 mb - 0.00 in0.0 mm 0.14 in3.6 mm
09:15 PM 42.5°F5.8°C 38.6°F3.7°C 86% Calm Calm -- 29.51 in999.3 mb - 0.00 in0.0 mm 0.14 in3.6 mm
09:10 PM 42.6°F5.9°C 38.7°F3.7°C 86% Calm Calm -- 29.52 in999.7 mb - 0.00 in0.0 mm 0.14 in3.6 mm
09:05 PM 42.5°F5.8°C 38.6°F3.7°C 86% Calm Calm 1.2 mph1.9 kmh 29.52 in999.7 mb - 0.00 in0.0 mm 0.14 in3.6 mm
09:00 PM 42.5°F5.8°C 38.6°F3.7°C 86% 2.3 mph NNE3.7 kmh NNE 3.5 mph5.6 kmh 29.52 in999.7 mb - 0.00 in0.0 mm 0.14 in3.6 mm
08:55 PM 42.8°F6.0°C 38.9°F3.8°C 86% 2.3 mph N3.7 kmh N 3.5 mph5.6 kmh 29.51 in999.3 mb - 0.00 in0.0 mm 0.14 in3.6 mm
08:50 PM 42.9°F6.1°C 39.0°F3.9°C 86% 1.2 mph N1.9 kmh N 2.3 mph3.7 kmh 29.51 in999.3 mb - 0.00 in0.0 mm 0.14 in3.6 mm
08:45 PM 43.1°F6.2°C 39.2°F4.0°C 86% Calm Calm 1.2 mph1.9 kmh 29.51 in999.3 mb - 0.00 in0.0 mm 0.14 in3.6 mm
08:40 PM 43.4°F6.3°C 39.5°F4.2°C 86% 2.3 mph N3.7 kmh N 3.5 mph5.6 kmh 29.51 in999.3 mb - 0.00 in0.0 mm 0.14 in3.6 mm
08:35 PM 43.5°F6.4°C 39.6°F4.2°C 86% 1.2 mph N1.9 kmh N 2.3 mph3.7 kmh 29.51 in999.3 mb - 0.00 in0.0 mm 0.14 in3.6 mm
08:30 PM 43.3°F6.3°C 39.4°F4.1°C 86% 2.3 mph N3.7 kmh N 3.5 mph5.6 kmh 29.51 in999.3 mb - 0.00 in0.0 mm 0.14 in3.6 mm
08:25 PM 43.2°F6.2°C 39.3°F4.1°C 86% 2.3 mph N3.7 kmh N 3.5 mph5.6 kmh 29.51 in999.3 mb - 0.00 in0.0 mm 0.14 in3.6 mm
08:20 PM 43.1°F6.2°C 39.2°F4.0°C 86% 2.3 mph N3.7 kmh N 3.5 mph5.6 kmh 29.51 in999.3 mb - 0.00 in0.0 mm 0.14 in3.6 mm
08:15 PM 43.3°F6.3°C 39.4°F4.1°C 86% Calm Calm -- 29.51 in999.3 mb - 0.00 in0.0 mm 0.14 in3.6 mm
08:10 PM 43.6°F6.4°C 39.7°F4.3°C 86% Calm Calm -- 29.50 in999.0 mb - 0.00 in0.0 mm 0.14 in3.6 mm
08:05 PM 43.9°F6.6°C 40.0°F4.4°C 86% 1.2 mph N1.9 kmh N 2.3 mph3.7 kmh 29.50 in999.0 mb - 0.00 in0.0 mm 0.14 in3.6 mm
08:00 PM 44.2°F6.8°C 40.3°F4.6°C 86% 2.3 mph N3.7 kmh N 3.5 mph5.6 kmh 29.50 in999.0 mb - 0.00 in0.0 mm 0.14 in3.6 mm
07:55 PM 44.2°F6.8°C 40.2°F4.6°C 86% 2.3 mph N3.7 kmh N 2.3 mph3.7 kmh 29.50 in999.0 mb - 0.00 in0.0 mm 0.14 in3.6 mm
07:50 PM 44.1°F6.7°C 40.2°F4.6°C 86% 2.3 mph N3.7 kmh N 3.5 mph5.6 kmh 29.50 in999.0 mb - 0.00 in0.0 mm 0.14 in3.6 mm
07:45 PM 44.1°F6.7°C 40.2°F4.6°C 86% 1.2 mph WNW1.9 kmh WNW 3.5 mph5.6 kmh 29.50 in999.0 mb - 0.00 in0.0 mm 0.14 in3.6 mm
07:40 PM 44.3°F6.8°C 40.4°F4.7°C 86% 1.2 mph WNW1.9 kmh WNW 1.2 mph1.9 kmh 29.50 in999.0 mb - 0.00 in0.0 mm 0.14 in3.6 mm
07:35 PM 44.3°F6.8°C 40.4°F4.7°C 86% 2.3 mph WNW3.7 kmh WNW 3.5 mph5.6 kmh 29.50 in999.0 mb - 0.00 in0.0 mm 0.14 in3.6 mm
07:30 PM 44.5°F6.9°C 40.6°F4.8°C 86% Calm Calm -- 29.50 in999.0 mb - 0.00 in0.0 mm 0.14 in3.6 mm
07:25 PM 44.6°F7.0°C 40.7°F4.8°C 86% Calm Calm -- 29.50 in999.0 mb - 0.00 in0.0 mm 0.14 in3.6 mm
07:20 PM 44.7°F7.1°C 40.8°F4.9°C 86% Calm Calm -- 29.50 in999.0 mb - 0.00 in0.0 mm 0.14 in3.6 mm
07:15 PM 44.9°F7.2°C 41.0°F5.0°C 86% Calm Calm -- 29.50 in999.0 mb - 0.00 in0.0 mm 0.14 in3.6 mm
07:10 PM 45.1°F7.3°C 41.2°F5.1°C 86% Calm Calm 1.2 mph1.9 kmh 29.50 in999.0 mb - 0.00 in0.0 mm 0.14 in3.6 mm
07:05 PM 45.3°F7.4°C 41.4°F5.2°C 86% 1.2 mph WNW1.9 kmh WNW 1.2 mph1.9 kmh 29.50 in999.0 mb - 0.00 in0.0 mm 0.14 in3.6 mm
07:00 PM 45.5°F7.5°C 41.6°F5.3°C 86% Calm Calm -- 29.49 in998.6 mb - 0.00 in0.0 mm 0.14 in3.6 mm
06:55 PM 45.7°F7.6°C 41.8°F5.4°C 86% 1.2 mph W1.9 kmh W 2.3 mph3.7 kmh 29.49 in998.6 mb - 0.00 in0.0 mm 0.14 in3.6 mm
06:50 PM 45.9°F7.7°C 41.9°F5.5°C 86% 1.2 mph W1.9 kmh W 3.5 mph5.6 kmh 29.49 in998.6 mb - 0.00 in0.0 mm 0.14 in3.6 mm
06:45 PM 46.0°F7.8°C 42.0°F5.6°C 86% 1.2 mph W1.9 kmh W 2.3 mph3.7 kmh 29.49 in998.6 mb - 0.00 in0.0 mm 0.14 in3.6 mm
06:40 PM 46.1°F7.8°C 41.8°F5.4°C 85% 1.2 mph WNW1.9 kmh WNW 3.5 mph5.6 kmh 29.49 in998.6 mb - 0.00 in0.0 mm 0.14 in3.6 mm
06:35 PM 46.3°F7.9°C 42.0°F5.6°C 85% 2.3 mph WNW3.7 kmh WNW 3.5 mph5.6 kmh 29.49 in998.6 mb - 0.00 in0.0 mm 0.14 in3.6 mm
06:25 PM 46.7°F8.2°C 42.4°F5.8°C 85% 1.2 mph WNW1.9 kmh WNW 3.5 mph5.6 kmh 29.49 in998.6 mb - 0.00 in0.0 mm 0.14 in3.6 mm
06:20 PM 46.9°F8.3°C 42.6°F5.9°C 85% 3.5 mph W5.6 kmh W 3.5 mph5.6 kmh 29.48 in998.3 mb - 0.00 in0.0 mm 0.14 in3.6 mm
06:15 PM 47.1°F8.4°C 42.8°F6.0°C 85% 3.5 mph W5.6 kmh W 5.8 mph9.3 kmh 29.48 in998.3 mb - 0.00 in0.0 mm 0.14 in3.6 mm
06:10 PM 47.3°F8.5°C 43.0°F6.1°C 85% 2.3 mph W3.7 kmh W 6.9 mph11.1 kmh 29.48 in998.3 mb - 0.00 in0.0 mm 0.14 in3.6 mm
06:05 PM 47.6°F8.7°C 43.3°F6.3°C 85% 3.5 mph W5.6 kmh W 6.9 mph11.1 kmh 29.48 in998.3 mb - 0.00 in0.0 mm 0.14 in3.6 mm
06:00 PM 47.8°F8.8°C 43.5°F6.4°C 85% 2.3 mph WSW3.7 kmh WSW 3.5 mph5.6 kmh 29.48 in998.3 mb - 0.00 in0.0 mm 0.14 in3.6 mm
05:55 PM 48.0°F8.9°C 43.7°F6.5°C 85% 2.3 mph W3.7 kmh W 3.5 mph5.6 kmh 29.48 in998.3 mb - 0.00 in0.0 mm 0.14 in3.6 mm
05:50 PM 48.2°F9.0°C 44.5°F6.9°C 87% 2.3 mph W3.7 kmh W 3.5 mph5.6 kmh 29.48 in998.3 mb - 0.00 in0.0 mm 0.14 in3.6 mm
05:45 PM 48.3°F9.1°C 44.0°F6.7°C 85% 2.3 mph WNW3.7 kmh WNW 2.3 mph3.7 kmh 29.48 in998.3 mb - 0.00 in0.0 mm 0.14 in3.6 mm
05:40 PM 48.5°F9.2°C 43.9°F6.6°C 84% 2.3 mph W3.7 kmh W 3.5 mph5.6 kmh 29.48 in998.3 mb - 0.00 in0.0 mm 0.14 in3.6 mm
05:35 PM 48.7°F9.3°C 44.1°F6.7°C 84% 2.3 mph W3.7 kmh W 3.5 mph5.6 kmh 29.48 in998.3 mb - 0.00 in0.0 mm 0.14 in3.6 mm
05:30 PM 49.0°F9.4°C 44.1°F6.7°C 83% 1.2 mph WNW1.9 kmh WNW 2.3 mph3.7 kmh 29.47 in998.0 mb - 0.00 in0.0 mm 0.14 in3.6 mm
05:25 PM 49.3°F9.6°C 44.4°F6.9°C 83% 2.3 mph NW3.7 kmh NW 3.5 mph5.6 kmh 29.47 in998.0 mb - 0.00 in0.0 mm 0.14 in3.6 mm
05:20 PM 49.6°F9.8°C 44.7°F7.1°C 83% 2.3 mph WSW3.7 kmh WSW 3.5 mph5.6 kmh 29.47 in998.0 mb - 0.00 in0.0 mm 0.14 in3.6 mm
05:15 PM 49.9°F9.9°C 44.7°F7.1°C 82% 2.3 mph WSW3.7 kmh WSW 3.5 mph5.6 kmh 29.47 in998.0 mb - 0.00 in0.0 mm 0.14 in3.6 mm
05:10 PM 50.4°F10.2°C 44.8°F7.1°C 81% 1.2 mph WSW1.9 kmh WSW 3.5 mph5.6 kmh 29.47 in998.0 mb - 0.00 in0.0 mm 0.14 in3.6 mm
05:05 PM 50.8°F10.4°C 45.1°F7.3°C 81% 1.2 mph WSW1.9 kmh WSW 3.5 mph5.6 kmh 29.47 in998.0 mb - 0.00 in0.0 mm 0.14 in3.6 mm
05:00 PM 51.1°F10.6°C 45.5°F7.5°C 81% 1.2 mph WSW1.9 kmh WSW 3.5 mph5.6 kmh 29.46 in997.6 mb - 0.00 in0.0 mm 0.14 in3.6 mm
04:55 PM 51.4°F10.8°C 45.5°F7.5°C 80% 1.2 mph WSW1.9 kmh WSW 2.3 mph3.7 kmh 29.46 in997.6 mb - 0.00 in0.0 mm 0.14 in3.6 mm
04:50 PM 51.8°F11.0°C 45.8°F7.7°C 80% 1.2 mph WSW1.9 kmh WSW 2.3 mph3.7 kmh 29.46 in997.6 mb - 0.00 in0.0 mm 0.14 in3.6 mm
04:45 PM 52.1°F11.2°C 45.8°F7.7°C 79% 1.2 mph WSW1.9 kmh WSW 2.3 mph3.7 kmh 29.46 in997.6 mb - 0.00 in0.0 mm 0.14 in3.6 mm
04:40 PM 52.3°F11.3°C 46.0°F7.8°C 79% 1.2 mph WSW1.9 kmh WSW 2.3 mph3.7 kmh 29.46 in997.6 mb - 0.00 in0.0 mm 0.14 in3.6 mm
04:35 PM 52.5°F11.4°C 45.9°F7.7°C 78% 2.3 mph WSW3.7 kmh WSW 3.5 mph5.6 kmh 29.45 in997.3 mb - 0.00 in0.0 mm 0.14 in3.6 mm
04:30 PM 52.8°F11.6°C 46.1°F7.8°C 78% 4.6 mph WSW7.4 kmh WSW 6.9 mph11.1 kmh 29.45 in997.3 mb - 0.00 in0.0 mm 0.14 in3.6 mm
04:25 PM 53.2°F11.8°C 46.1°F7.8°C 77% 3.5 mph WSW5.6 kmh WSW 6.9 mph11.1 kmh 29.45 in997.3 mb - 0.00 in0.0 mm 0.14 in3.6 mm
04:20 PM 53.5°F11.9°C 46.1°F7.8°C 76% 4.6 mph W7.4 kmh W 8.1 mph13.0 kmh 29.45 in997.3 mb - 0.00 in0.0 mm 0.14 in3.6 mm
04:15 PM 54.0°F12.2°C 46.2°F7.9°C 75% 2.3 mph WSW3.7 kmh WSW 3.5 mph5.6 kmh 29.45 in997.3 mb - 0.00 in0.0 mm 0.14 in3.6 mm
04:10 PM 54.4°F12.4°C 46.3°F7.9°C 74% 3.5 mph WSW5.6 kmh WSW 6.9 mph11.1 kmh 29.45 in997.3 mb - 0.00 in0.0 mm 0.14 in3.6 mm
04:05 PM 54.8°F12.7°C 46.7°F8.2°C 74% 2.3 mph W3.7 kmh W 3.5 mph5.6 kmh 29.44 in997.0 mb - 0.00 in0.0 mm 0.14 in3.6 mm
04:00 PM 55.0°F12.8°C 46.5°F8.1°C 73% 3.5 mph W5.6 kmh W 6.9 mph11.1 kmh 29.44 in997.0 mb - 0.00 in0.0 mm 0.14 in3.6 mm
03:55 PM 55.1°F12.8°C 47.0°F8.3°C 74% 4.6 mph WSW7.4 kmh WSW 8.1 mph13.0 kmh 29.44 in997.0 mb - 0.00 in0.0 mm 0.14 in3.6 mm
03:50 PM 55.3°F12.9°C 47.2°F8.4°C 74% 4.6 mph WSW7.4 kmh WSW 10.4 mph16.7 kmh 29.44 in997.0 mb - 0.00 in0.0 mm 0.14 in3.6 mm
03:45 PM 55.6°F13.1°C 47.1°F8.4°C 73% 5.8 mph WSW9.3 kmh WSW 10.4 mph16.7 kmh 29.44 in997.0 mb - 0.00 in0.0 mm 0.14 in3.6 mm
03:40 PM 55.9°F13.3°C 47.4°F8.6°C 73% 5.8 mph WSW9.3 kmh WSW 9.2 mph14.8 kmh 29.44 in997.0 mb - 0.00 in0.0 mm 0.14 in3.6 mm
03:35 PM 56.1°F13.4°C 47.9°F8.8°C 74% 5.8 mph WSW9.3 kmh WSW 9.2 mph14.8 kmh 29.44 in997.0 mb - 0.00 in0.0 mm 0.14 in3.6 mm
03:30 PM 56.0°F13.3°C 48.5°F9.2°C 76% 3.5 mph WSW5.6 kmh WSW 8.1 mph13.0 kmh 29.44 in997.0 mb - 0.00 in0.0 mm 0.14 in3.6 mm
03:25 PM 55.5°F13.1°C 48.8°F9.3°C 78% 2.3 mph WSW3.7 kmh WSW 2.3 mph3.7 kmh 29.44 in997.0 mb - 0.00 in0.0 mm 0.14 in3.6 mm
03:20 PM 54.9°F12.7°C 48.5°F9.2°C 79% 4.6 mph W7.4 kmh W 3.5 mph5.6 kmh 29.44 in997.0 mb - 0.00 in0.0 mm 0.14 in3.6 mm
03:15 PM 54.2°F12.3°C 48.5°F9.2°C 81% 3.5 mph W5.6 kmh W 6.9 mph11.1 kmh 29.44 in997.0 mb - 0.00 in0.0 mm 0.14 in3.6 mm
03:10 PM 53.6°F12.0°C 47.9°F8.8°C 81% 2.3 mph NW3.7 kmh NW 3.5 mph5.6 kmh 29.44 in997.0 mb - 0.00 in0.0 mm 0.14 in3.6 mm
03:05 PM 53.8°F12.1°C 47.4°F8.6°C 79% 3.5 mph W5.6 kmh W 5.8 mph9.3 kmh 29.44 in997.0 mb - 0.00 in0.0 mm 0.14 in3.6 mm
03:00 PM 54.2°F12.3°C 47.5°F8.6°C 78% 3.5 mph W5.6 kmh W 8.1 mph13.0 kmh 29.44 in997.0 mb - 0.00 in0.0 mm 0.14 in3.6 mm
02:55 PM 54.6°F12.6°C 47.9°F8.8°C 78% 5.8 mph W9.3 kmh W 11.5 mph18.5 kmh 29.44 in997.0 mb - 0.00 in0.0 mm 0.14 in3.6 mm
02:50 PM 54.7°F12.6°C 48.3°F9.1°C 79% 5.8 mph W9.3 kmh W 10.4 mph16.7 kmh 29.44 in997.0 mb - 0.00 in0.0 mm 0.14 in3.6 mm
02:45 PM 54.6°F12.6°C 47.5°F8.6°C 77% 5.8 mph W9.3 kmh W 8.1 mph13.0 kmh 29.44 in997.0 mb - 0.00 in0.0 mm 0.14 in3.6 mm
02:40 PM 54.8°F12.7°C 47.7°F8.7°C 77% 4.6 mph WSW7.4 kmh WSW 6.9 mph11.1 kmh 29.44 in997.0 mb - 0.00 in0.0 mm 0.14 in3.6 mm
02:35 PM 55.0°F12.8°C 47.6°F8.7°C 76% 4.6 mph W7.4 kmh W 9.2 mph14.8 kmh 29.44 in997.0 mb - 0.00 in0.0 mm 0.14 in3.6 mm
02:30 PM 55.3°F12.9°C 47.9°F8.8°C 76% 4.6 mph W7.4 kmh W 9.2 mph14.8 kmh 29.43 in996.6 mb - 0.00 in0.0 mm 0.14 in3.6 mm
02:25 PM 55.7°F13.2°C 47.9°F8.8°C 75% 6.9 mph WSW11.1 kmh WSW 9.2 mph14.8 kmh 29.43 in996.6 mb - 0.00 in0.0 mm 0.14 in3.6 mm
02:20 PM 56.4°F13.6°C 48.2°F9.0°C 74% 6.9 mph WSW11.1 kmh WSW 12.7 mph20.4 kmh 29.43 in996.6 mb - 0.00 in0.0 mm 0.14 in3.6 mm
02:15 PM 56.5°F13.6°C 48.0°F8.9°C 73% 4.6 mph WSW7.4 kmh WSW 5.8 mph9.3 kmh 29.43 in996.6 mb - 0.00 in0.0 mm 0.14 in3.6 mm
02:10 PM 56.3°F13.5°C 47.8°F8.8°C 73% 6.9 mph WSW11.1 kmh WSW 8.1 mph13.0 kmh 29.43 in996.6 mb - 0.00 in0.0 mm 0.14 in3.6 mm
02:05 PM 56.1°F13.4°C 47.2°F8.4°C 72% 5.8 mph WSW9.3 kmh WSW 9.2 mph14.8 kmh 29.43 in996.6 mb - 0.00 in0.0 mm 0.14 in3.6 mm
02:00 PM 56.6°F13.7°C 48.0°F8.9°C 73% 6.9 mph SW11.1 kmh SW 11.5 mph18.5 kmh 29.43 in996.6 mb - 0.00 in0.0 mm 0.14 in3.6 mm
01:55 PM 56.8°F13.8°C 49.0°F9.4°C 75% 5.8 mph W9.3 kmh W 13.8 mph22.2 kmh 29.43 in996.6 mb - 0.00 in0.0 mm 0.14 in3.6 mm
01:50 PM 56.6°F13.7°C 48.4°F9.1°C 74% 5.8 mph WSW9.3 kmh WSW 11.5 mph18.5 kmh 29.43 in996.6 mb - 0.00 in0.0 mm 0.14 in3.6 mm
01:45 PM 56.2°F13.4°C 48.0°F8.9°C 74% 5.8 mph WSW9.3 kmh WSW 8.1 mph13.0 kmh 29.43 in996.6 mb - 0.00 in0.0 mm 0.14 in3.6 mm
01:40 PM 56.0°F13.3°C 47.8°F8.8°C 74% 6.9 mph WSW11.1 kmh WSW 12.7 mph20.4 kmh 29.42 in996.3 mb - 0.00 in0.0 mm 0.14 in3.6 mm
01:35 PM 56.2°F13.4°C 48.0°F8.9°C 74% 10.4 mph WSW16.7 kmh WSW 15.0 mph24.1 kmh 29.42 in996.3 mb - 0.00 in0.0 mm 0.14 in3.6 mm
01:30 PM 56.1°F13.4°C 48.3°F9.1°C 75% 8.1 mph WSW13.0 kmh WSW 15.0 mph24.1 kmh 29.42 in996.3 mb - 0.00 in0.0 mm 0.14 in3.6 mm
01:25 PM 55.9°F13.3°C 48.4°F9.1°C 76% 8.1 mph WSW13.0 kmh WSW 13.8 mph22.2 kmh 29.42 in996.3 mb - 0.00 in0.0 mm 0.14 in3.6 mm
01:20 PM 55.7°F13.2°C 48.6°F9.2°C 77% 9.2 mph WSW14.8 kmh WSW 13.8 mph22.2 kmh 29.42 in996.3 mb - 0.00 in0.0 mm 0.14 in3.6 mm
01:15 PM 55.8°F13.2°C 49.4°F9.7°C 79% 6.9 mph WSW11.1 kmh WSW 11.5 mph18.5 kmh 29.42 in996.3 mb - 0.00 in0.0 mm 0.14 in3.6 mm
01:10 PM 55.5°F13.1°C 49.5°F9.7°C 80% 4.6 mph WSW7.4 kmh WSW 10.4 mph16.7 kmh 29.41 in995.9 mb - 0.00 in0.0 mm 0.14 in3.6 mm
01:05 PM 55.5°F13.1°C 49.1°F9.5°C 79% 8.1 mph W13.0 kmh W 11.5 mph18.5 kmh 29.41 in995.9 mb - 0.00 in0.0 mm 0.14 in3.6 mm
01:00 PM 55.3°F12.9°C 49.2°F9.6°C 80% 9.2 mph W14.8 kmh W 12.7 mph20.4 kmh 29.41 in995.9 mb - 0.00 in0.0 mm 0.14 in3.6 mm
12:55 PM 55.1°F12.8°C 49.0°F9.4°C 80% 6.9 mph W11.1 kmh W 12.7 mph20.4 kmh 29.41 in995.9 mb - 0.00 in0.0 mm 0.14 in3.6 mm
12:50 PM 54.3°F12.4°C 48.9°F9.4°C 82% 5.8 mph WSW9.3 kmh WSW 10.4 mph16.7 kmh 29.41 in995.9 mb - 0.00 in0.0 mm 0.14 in3.6 mm
12:45 PM 53.5°F11.9°C 48.5°F9.2°C 83% 9.2 mph W14.8 kmh W 11.5 mph18.5 kmh 29.41 in995.9 mb - 0.00 in0.0 mm 0.14 in3.6 mm
12:40 PM 53.2°F11.8°C 48.8°F9.3°C 85% 6.9 mph WSW11.1 kmh WSW 11.5 mph18.5 kmh 29.41 in995.9 mb - 0.00 in0.0 mm 0.14 in3.6 mm
12:35 PM 52.8°F11.6°C 48.7°F9.3°C 86% 8.1 mph WSW13.0 kmh WSW 11.5 mph18.5 kmh 29.41 in995.9 mb - 0.00 in0.0 mm 0.14 in3.6 mm
12:30 PM 52.6°F11.4°C 48.5°F9.2°C 86% 5.8 mph WSW9.3 kmh WSW 6.9 mph11.1 kmh 29.40 in995.6 mb - 0.00 in0.0 mm 0.14 in3.6 mm
12:25 PM 52.9°F11.6°C 48.8°F9.3°C 86% 6.9 mph WSW11.1 kmh WSW 10.4 mph16.7 kmh 29.40 in995.6 mb - 0.01 in0.3 mm 0.14 in3.6 mm
12:20 PM 52.7°F11.5°C 48.3°F9.1°C 85% 8.1 mph SW13.0 kmh SW 11.5 mph18.5 kmh 29.39 in995.3 mb - 0.02 in0.5 mm 0.14 in3.6 mm
12:15 PM 52.4°F11.3°C 48.1°F8.9°C 85% 5.8 mph WSW9.3 kmh WSW 8.1 mph13.0 kmh 29.39 in995.3 mb - 0.02 in0.5 mm 0.14 in3.6 mm
12:10 PM 51.7°F10.9°C 47.4°F8.6°C 85% 5.8 mph NW9.3 kmh NW 10.4 mph16.7 kmh 29.38 in994.9 mb - 0.02 in0.5 mm 0.14 in3.6 mm
12:05 PM 51.2°F10.7°C 46.8°F8.2°C 85% 5.8 mph NW9.3 kmh NW 10.4 mph16.7 kmh 29.38 in994.9 mb - 0.02 in0.5 mm 0.14 in3.6 mm
12:00 PM 50.8°F10.4°C 46.5°F8.1°C 85% 6.9 mph NW11.1 kmh NW 8.1 mph13.0 kmh 29.38 in994.9 mb - 0.02 in0.5 mm 0.14 in3.6 mm
11:55 AM 50.9°F10.5°C 46.6°F8.1°C 85% 8.1 mph NW13.0 kmh NW 11.5 mph18.5 kmh 29.38 in994.9 mb - 0.02 in0.5 mm 0.14 in3.6 mm
11:50 AM 50.8°F10.4°C 46.4°F8.0°C 85% 3.5 mph WSW5.6 kmh WSW 6.9 mph11.1 kmh 29.38 in994.9 mb - 0.02 in0.5 mm 0.14 in3.6 mm
11:45 AM 50.6°F10.3°C 46.3°F7.9°C 85% 5.8 mph W9.3 kmh W 11.5 mph18.5 kmh 29.38 in994.9 mb - 0.02 in0.5 mm 0.14 in3.6 mm
11:40 AM 50.8°F10.4°C 46.4°F8.0°C 85% 5.8 mph W9.3 kmh W 9.2 mph14.8 kmh 29.39 in995.3 mb - 0.02 in0.5 mm 0.14 in3.6 mm
11:35 AM 51.2°F10.7°C 46.8°F8.2°C 85% 6.9 mph WSW11.1 kmh WSW 11.5 mph18.5 kmh 29.38 in994.9 mb - 0.02 in0.5 mm 0.14 in3.6 mm
11:30 AM 51.4°F10.8°C 47.0°F8.3°C 85% 3.5 mph W5.6 kmh W 3.5 mph5.6 kmh 29.38 in994.9 mb - 0.02 in0.5 mm 0.14 in3.6 mm
11:25 AM 51.4°F10.8°C 47.0°F8.3°C 85% 3.5 mph W5.6 kmh W 5.8 mph9.3 kmh 29.38 in994.9 mb - 0.02 in0.5 mm 0.13 in3.3 mm
11:20 AM 51.5°F10.8°C 47.1°F8.4°C 85% Calm Calm -- 29.38 in994.9 mb - 0.01 in0.3 mm 0.12 in3.0 mm
11:15 AM 51.5°F10.8°C 47.2°F8.4°C 85% Calm Calm 1.2 mph1.9 kmh 29.38 in994.9 mb - 0.02 in0.5 mm 0.12 in3.0 mm
11:10 AM 51.7°F10.9°C 47.4°F8.6°C 85% Calm Calm 2.3 mph3.7 kmh 29.38 in994.9 mb - 0.02 in0.5 mm 0.12 in3.0 mm
11:05 AM 51.8°F11.0°C 47.4°F8.6°C 85% Calm Calm -- 29.38 in994.9 mb - 0.02 in0.5 mm 0.12 in3.0 mm
11:00 AM 51.8°F11.0°C 47.4°F8.6°C 85% Calm Calm -- 29.38 in994.9 mb - 0.02 in0.5 mm 0.12 in3.0 mm
10:55 AM 51.9°F11.1°C 47.5°F8.6°C 85% Calm Calm -- 29.37 in994.6 mb - 0.02 in0.5 mm 0.12 in3.0 mm
10:50 AM 51.8°F11.0°C 47.4°F8.6°C 85% Calm Calm -- 29.37 in994.6 mb - 0.02 in0.5 mm 0.12 in3.0 mm
10:45 AM 51.7°F10.9°C 47.3°F8.5°C 85% Calm Calm -- 29.37 in994.6 mb - 0.02 in0.5 mm 0.12 in3.0 mm
10:40 AM 51.7°F10.9°C 47.3°F8.5°C 85% Calm Calm -- 29.37 in994.6 mb - 0.02 in0.5 mm 0.12 in3.0 mm
10:35 AM 51.7°F10.9°C 47.3°F8.5°C 85% Calm Calm -- 29.37 in994.6 mb - 0.02 in0.5 mm 0.12 in3.0 mm
10:30 AM 51.7°F10.9°C 47.3°F8.5°C 85% Calm Calm -- 29.37 in994.6 mb - 0.02 in0.5 mm 0.12 in3.0 mm
10:25 AM 51.6°F10.9°C 47.2°F8.4°C 85% 1.2 mph ESE1.9 kmh ESE 2.3 mph3.7 kmh 29.37 in994.6 mb - 0.02 in0.5 mm 0.12 in3.0 mm
10:20 AM 51.6°F10.9°C 47.2°F8.4°C 85% 1.2 mph ESE1.9 kmh ESE 2.3 mph3.7 kmh 29.36 in994.2 mb - 0.02 in0.5 mm 0.12 in3.0 mm
10:15 AM 51.5°F10.8°C 47.1°F8.4°C 85% Calm Calm -- 29.36 in994.2 mb - 0.01 in0.3 mm 0.11 in2.8 mm
10:10 AM 51.4°F10.8°C 47.0°F8.3°C 85% 2.3 mph E3.7 kmh E 3.5 mph5.6 kmh 29.36 in994.2 mb - 0.01 in0.3 mm 0.11 in2.8 mm
10:05 AM 51.3°F10.7°C 46.9°F8.3°C 85% 2.3 mph SE3.7 kmh SE 3.5 mph5.6 kmh 29.36 in994.2 mb - 0.01 in0.3 mm 0.11 in2.8 mm
10:00 AM 51.3°F10.7°C 46.9°F8.3°C 85% 3.5 mph E5.6 kmh E 3.5 mph5.6 kmh 29.36 in994.2 mb - 0.01 in0.3 mm 0.11 in2.8 mm
09:55 AM 51.3°F10.7°C 46.9°F8.3°C 85% 4.6 mph E7.4 kmh E 8.1 mph13.0 kmh 29.36 in994.2 mb - 0.02 in0.5 mm 0.11 in2.8 mm
09:50 AM 51.3°F10.7°C 46.9°F8.3°C 85% 5.8 mph ESE9.3 kmh ESE 8.1 mph13.0 kmh 29.36 in994.2 mb - 0.02 in0.5 mm 0.10 in2.5 mm
09:45 AM 51.3°F10.7°C 46.9°F8.3°C 85% 3.5 mph E5.6 kmh E 6.9 mph11.1 kmh 29.36 in994.2 mb - 0.02 in0.5 mm 0.10 in2.5 mm
09:40 AM 51.4°F10.8°C 47.0°F8.3°C 85% 4.6 mph E7.4 kmh E 8.1 mph13.0 kmh 29.36 in994.2 mb - 0.02 in0.5 mm 0.10 in2.5 mm
09:35 AM 51.3°F10.7°C 46.9°F8.3°C 85% 2.3 mph ESE3.7 kmh ESE 3.5 mph5.6 kmh 29.36 in994.2 mb - 0.03 in0.8 mm 0.10 in2.5 mm
09:30 AM 51.3°F10.7°C 46.9°F8.3°C 85% 3.5 mph SE5.6 kmh SE 5.8 mph9.3 kmh 29.36 in994.2 mb - 0.04 in1.0 mm 0.10 in2.5 mm
09:25 AM 51.2°F10.7°C 46.8°F8.2°C 85% 3.5 mph ESE5.6 kmh ESE 3.5 mph5.6 kmh 29.36 in994.2 mb - 0.06 in1.5 mm 0.10 in2.5 mm
09:20 AM 51.2°F10.7°C 46.8°F8.2°C 85% 3.5 mph E5.6 kmh E 5.8 mph9.3 kmh 29.36 in994.2 mb - 0.07 in1.8 mm 0.10 in2.5 mm
09:15 AM 51.1°F10.6°C 46.7°F8.2°C 85% 4.6 mph ESE7.4 kmh ESE 6.9 mph11.1 kmh 29.36 in994.2 mb - 0.07 in1.8 mm 0.10 in2.5 mm
09:10 AM 51.1°F10.6°C 46.7°F8.2°C 85% 3.5 mph E5.6 kmh E 5.8 mph9.3 kmh 29.36 in994.2 mb - 0.08 in2.0 mm 0.10 in2.5 mm
09:05 AM 51.1°F10.6°C 47.1°F8.4°C 86% 4.6 mph ESE7.4 kmh ESE 6.9 mph11.1 kmh 29.36 in994.2 mb - 0.09 in2.3 mm 0.10 in2.5 mm
09:00 AM 51.1°F10.6°C 47.0°F8.3°C 86% 3.5 mph E5.6 kmh E 3.5 mph5.6 kmh 29.36 in994.2 mb - 0.09 in2.3 mm 0.10 in2.5 mm
08:55 AM 51.0°F10.6°C 47.0°F8.3°C 86% 2.3 mph E3.7 kmh E 3.5 mph5.6 kmh 29.36 in994.2 mb - 0.09 in2.3 mm 0.09 in2.3 mm
08:50 AM 50.9°F10.5°C 46.9°F8.3°C 86% 2.3 mph E3.7 kmh E 3.5 mph5.6 kmh 29.36 in994.2 mb - 0.08 in2.0 mm 0.08 in2.0 mm
08:45 AM 50.9°F10.5°C 46.9°F8.3°C 86% 3.5 mph E5.6 kmh E 6.9 mph11.1 kmh 29.36 in994.2 mb - 0.07 in1.8 mm 0.07 in1.8 mm
08:40 AM 50.9°F10.5°C 46.9°F8.3°C 86% 4.6 mph E7.4 kmh E 6.9 mph11.1 kmh 29.36 in994.2 mb - 0.07 in1.8 mm 0.07 in1.8 mm
08:35 AM 50.9°F10.5°C 46.8°F8.2°C 86% 4.6 mph E7.4 kmh E 5.8 mph9.3 kmh 29.36 in994.2 mb - 0.07 in1.8 mm 0.07 in1.8 mm
08:30 AM 50.8°F10.4°C 46.8°F8.2°C 86% 4.6 mph E7.4 kmh E 5.8 mph9.3 kmh 29.36 in994.2 mb - 0.06 in1.5 mm 0.06 in1.5 mm
08:25 AM 50.8°F10.4°C 46.8°F8.2°C 86% 2.3 mph E3.7 kmh E 6.9 mph11.1 kmh 29.36 in994.2 mb - 0.05 in1.3 mm 0.05 in1.3 mm
08:20 AM 50.9°F10.5°C 46.9°F8.3°C 86% 4.6 mph ESE7.4 kmh ESE 6.9 mph11.1 kmh 29.36 in994.2 mb - 0.03 in0.8 mm 0.03 in0.8 mm
08:15 AM 50.9°F10.5°C 46.9°F8.3°C 86% 4.6 mph E7.4 kmh E 6.9 mph11.1 kmh 29.36 in994.2 mb - 0.02 in0.5 mm 0.03 in0.8 mm
08:10 AM 50.9°F10.5°C 46.9°F8.3°C 86% 4.6 mph E7.4 kmh E 5.8 mph9.3 kmh 29.36 in994.2 mb - 0.02 in0.5 mm 0.02 in0.5 mm
08:05 AM 51.0°F10.6°C 47.0°F8.3°C 86% 4.6 mph ESE7.4 kmh ESE 6.9 mph11.1 kmh 29.36 in994.2 mb - 0.02 in0.5 mm 0.02 in0.5 mm
08:00 AM 51.1°F10.6°C 47.1°F8.4°C 86% 5.8 mph E9.3 kmh E 10.4 mph16.7 kmh 29.36 in994.2 mb - 0.01 in0.3 mm 0.01 in0.3 mm
07:55 AM 51.2°F10.7°C 47.2°F8.4°C 86% 4.6 mph E7.4 kmh E 5.8 mph9.3 kmh 29.36 in994.2 mb - 0.00 in0.0 mm 0.00 in0.0 mm
07:50 AM 51.3°F10.7°C 47.3°F8.5°C 86% 6.9 mph E11.1 kmh E 9.2 mph14.8 kmh 29.36 in994.2 mb - 0.00 in0.0 mm 0.00 in0.0 mm
07:45 AM 51.3°F10.7°C 47.3°F8.5°C 86% 5.8 mph ESE9.3 kmh ESE 9.2 mph14.8 kmh 29.35 in993.9 mb - 0.00 in0.0 mm 0.00 in0.0 mm
07:40 AM 51.1°F10.6°C 47.1°F8.4°C 86% 6.9 mph E11.1 kmh E 9.2 mph14.8 kmh 29.35 in993.9 mb - 0.00 in0.0 mm 0.00 in0.0 mm
07:35 AM 50.9°F10.5°C 46.9°F8.3°C 86% 6.9 mph E11.1 kmh E 8.1 mph13.0 kmh 29.35 in993.9 mb - 0.00 in0.0 mm 0.00 in0.0 mm
07:30 AM 50.9°F10.5°C 46.9°F8.3°C 86% 3.5 mph SE5.6 kmh SE 3.5 mph5.6 kmh 29.36 in994.2 mb - 0.00 in0.0 mm 0.00 in0.0 mm
07:25 AM 50.9°F10.5°C 46.9°F8.3°C 86% 5.8 mph SE9.3 kmh SE 8.1 mph13.0 kmh 29.36 in994.2 mb - 0.00 in0.0 mm 0.00 in0.0 mm
07:20 AM 50.9°F10.5°C 46.9°F8.3°C 86% 3.5 mph SE5.6 kmh SE 4.6 mph7.4 kmh 29.36 in994.2 mb - 0.00 in0.0 mm 0.00 in0.0 mm
07:15 AM 51.0°F10.6°C 46.6°F8.1°C 85% 3.5 mph SE5.6 kmh SE 5.8 mph9.3 kmh 29.36 in994.2 mb - 0.00 in0.0 mm 0.00 in0.0 mm
07:10 AM 50.9°F10.5°C 46.9°F8.3°C 86% 6.9 mph ESE11.1 kmh ESE 9.2 mph14.8 kmh 29.36 in994.2 mb - 0.00 in0.0 mm 0.00 in0.0 mm
07:05 AM 50.9°F10.5°C 46.9°F8.3°C 86% 5.8 mph ESE9.3 kmh ESE 8.1 mph13.0 kmh 29.36 in994.2 mb - 0.00 in0.0 mm 0.00 in0.0 mm
07:00 AM 50.8°F10.4°C 46.8°F8.2°C 86% 8.1 mph E13.0 kmh E 11.5 mph18.5 kmh 29.36 in994.2 mb - 0.00 in0.0 mm 0.00 in0.0 mm
06:55 AM 50.8°F10.4°C 46.5°F8.1°C 85% 6.9 mph ESE11.1 kmh ESE 12.7 mph20.4 kmh 29.36 in994.2 mb - 0.00 in0.0 mm 0.00 in0.0 mm
06:50 AM 50.9°F10.5°C 46.6°F8.1°C 85% 5.8 mph ESE9.3 kmh ESE 8.1 mph13.0 kmh 29.36 in994.2 mb - 0.00 in0.0 mm 0.00 in0.0 mm
06:45 AM 51.1°F10.6°C 46.7°F8.2°C 85% 6.9 mph ESE11.1 kmh ESE 10.4 mph16.7 kmh 29.36 in994.2 mb - 0.00 in0.0 mm 0.00 in0.0 mm
06:40 AM 51.2°F10.7°C 46.8°F8.2°C 85% 6.9 mph E11.1 kmh E 8.1 mph13.0 kmh 29.36 in994.2 mb - 0.00 in0.0 mm 0.00 in0.0 mm
06:35 AM 51.2°F10.7°C 46.8°F8.2°C 85% 4.6 mph ESE7.4 kmh ESE 6.9 mph11.1 kmh 29.36 in994.2 mb - 0.00 in0.0 mm 0.00 in0.0 mm
06:30 AM 51.0°F10.6°C 46.7°F8.2°C 85% 8.1 mph E13.0 kmh E 10.4 mph16.7 kmh 29.36 in994.2 mb - 0.00 in0.0 mm 0.00 in0.0 mm
06:25 AM 51.0°F10.6°C 46.6°F8.1°C 85% 4.6 mph ESE7.4 kmh ESE 6.9 mph11.1 kmh 29.36 in994.2 mb - 0.00 in0.0 mm 0.00 in0.0 mm
06:20 AM 50.9°F10.5°C 46.6°F8.1°C 85% 4.6 mph SE7.4 kmh SE 9.2 mph14.8 kmh 29.36 in994.2 mb - 0.00 in0.0 mm 0.00 in0.0 mm
06:15 AM 50.7°F10.4°C 46.4°F8.0°C 85% 3.5 mph ESE5.6 kmh ESE 6.9 mph11.1 kmh 29.36 in994.2 mb - 0.00 in0.0 mm 0.00 in0.0 mm
06:10 AM 50.5°F10.3°C 46.2°F7.9°C 85% 6.9 mph ESE11.1 kmh ESE 10.4 mph16.7 kmh 29.36 in994.2 mb - 0.00 in0.0 mm 0.00 in0.0 mm
06:05 AM 50.3°F10.2°C 46.0°F7.8°C 85% 4.6 mph ESE7.4 kmh ESE 8.1 mph13.0 kmh 29.36 in994.2 mb - 0.00 in0.0 mm 0.00 in0.0 mm
06:00 AM 50.2°F10.1°C 45.8°F7.7°C 85% 8.1 mph E13.0 kmh E 11.5 mph18.5 kmh 29.36 in994.2 mb - 0.00 in0.0 mm 0.00 in0.0 mm
05:55 AM 50.0°F10.0°C 46.0°F7.8°C 86% 6.9 mph ESE11.1 kmh ESE 9.2 mph14.8 kmh 29.36 in994.2 mb - 0.00 in0.0 mm 0.00 in0.0 mm
05:50 AM 49.9°F9.9°C 45.6°F7.6°C 85% 6.9 mph E11.1 kmh E 8.1 mph13.0 kmh 29.36 in994.2 mb - 0.00 in0.0 mm 0.00 in0.0 mm
05:45 AM 49.9°F9.9°C 45.6°F7.6°C 85% 6.9 mph ESE11.1 kmh ESE 9.2 mph14.8 kmh 29.36 in994.2 mb - 0.00 in0.0 mm 0.00 in0.0 mm
05:40 AM 50.0°F10.0°C 45.7°F7.6°C 85% 4.6 mph SE7.4 kmh SE 9.2 mph14.8 kmh 29.37 in994.6 mb - 0.00 in0.0 mm 0.00 in0.0 mm
05:35 AM 50.0°F10.0°C 45.7°F7.6°C 85% 5.8 mph ESE9.3 kmh ESE 8.1 mph13.0 kmh 29.37 in994.6 mb - 0.00 in0.0 mm 0.00 in0.0 mm
05:30 AM 49.9°F9.9°C 45.6°F7.6°C 85% 3.5 mph ESE5.6 kmh ESE 3.5 mph5.6 kmh 29.37 in994.6 mb - 0.00 in0.0 mm 0.00 in0.0 mm
05:25 AM 49.9°F9.9°C 45.6°F7.6°C 85% 4.6 mph ESE7.4 kmh ESE 6.9 mph11.1 kmh 29.37 in994.6 mb - 0.00 in0.0 mm 0.00 in0.0 mm
05:20 AM 49.9°F9.9°C 45.6°F7.6°C 85% 4.6 mph E7.4 kmh E 6.9 mph11.1 kmh 29.37 in994.6 mb - 0.00 in0.0 mm 0.00 in0.0 mm
05:15 AM 50.0°F10.0°C 45.7°F7.6°C 85% 4.6 mph SE7.4 kmh SE 8.1 mph13.0 kmh 29.37 in994.6 mb - 0.00 in0.0 mm 0.00 in0.0 mm
05:10 AM 50.0°F10.0°C 45.7°F7.6°C 85% 4.6 mph E7.4 kmh E 9.2 mph14.8 kmh 29.37 in994.6 mb - 0.00 in0.0 mm 0.00 in0.0 mm
05:05 AM 50.1°F10.1°C 45.7°F7.6°C 85% 4.6 mph ESE7.4 kmh ESE 8.1 mph13.0 kmh 29.38 in994.9 mb - 0.00 in0.0 mm 0.00 in0.0 mm
05:00 AM 50.0°F10.0°C 45.7°F7.6°C 85% 5.8 mph ESE9.3 kmh ESE 9.2 mph14.8 kmh 29.38 in994.9 mb - 0.00 in0.0 mm 0.00 in0.0 mm
04:55 AM 49.9°F9.9°C 45.6°F7.6°C 85% 6.9 mph E11.1 kmh E 8.1 mph13.0 kmh 29.38 in994.9 mb - 0.00 in0.0 mm 0.00 in0.0 mm
04:50 AM 49.9°F9.9°C 45.6°F7.6°C 85% 5.8 mph ESE9.3 kmh ESE 6.9 mph11.1 kmh 29.38 in994.9 mb - 0.00 in0.0 mm 0.00 in0.0 mm
04:45 AM 49.8°F9.9°C 45.5°F7.5°C 85% 4.6 mph ESE7.4 kmh ESE 5.8 mph9.3 kmh 29.38 in994.9 mb - 0.00 in0.0 mm 0.00 in0.0 mm
04:40 AM 49.6°F9.8°C 45.6°F7.6°C 86% 4.6 mph E7.4 kmh E 6.9 mph11.1 kmh 29.38 in994.9 mb - 0.00 in0.0 mm 0.00 in0.0 mm
04:35 AM 49.4°F9.7°C 45.4°F7.4°C 86% 4.6 mph ENE7.4 kmh ENE 5.8 mph9.3 kmh 29.38 in994.9 mb - 0.00 in0.0 mm 0.00 in0.0 mm
04:30 AM 49.5°F9.7°C 45.5°F7.5°C 86% 4.6 mph E7.4 kmh E 6.9 mph11.1 kmh 29.39 in995.3 mb - 0.00 in0.0 mm 0.00 in0.0 mm
04:25 AM 49.5°F9.7°C 45.5°F7.5°C 86% 3.5 mph E5.6 kmh E 8.1 mph13.0 kmh 29.39 in995.3 mb - 0.00 in0.0 mm 0.00 in0.0 mm
04:20 AM 49.6°F9.8°C 45.6°F7.6°C 86% 3.5 mph E5.6 kmh E 4.6 mph7.4 kmh 29.39 in995.3 mb - 0.00 in0.0 mm 0.00 in0.0 mm
04:15 AM 49.7°F9.8°C 45.4°F7.4°C 85% 4.6 mph E7.4 kmh E 6.9 mph11.1 kmh 29.39 in995.3 mb - 0.00 in0.0 mm 0.00 in0.0 mm
04:10 AM 49.7°F9.8°C 45.4°F7.4°C 85% 6.9 mph E11.1 kmh E 10.4 mph16.7 kmh 29.39 in995.3 mb - 0.00 in0.0 mm 0.00 in0.0 mm
04:05 AM 49.8°F9.9°C 45.4°F7.4°C 85% 4.6 mph E7.4 kmh E 6.9 mph11.1 kmh 29.39 in995.3 mb - 0.00 in0.0 mm 0.00 in0.0 mm
04:00 AM 49.9°F9.9°C 45.6°F7.6°C 85% 3.5 mph ESE5.6 kmh ESE 5.8 mph9.3 kmh 29.39 in995.3 mb - 0.00 in0.0 mm 0.00 in0.0 mm
03:55 AM 49.9°F9.9°C 45.6°F7.6°C 85% 3.5 mph ESE5.6 kmh ESE 6.9 mph11.1 kmh 29.39 in995.3 mb - 0.00 in0.0 mm 0.00 in0.0 mm
03:50 AM 50.0°F10.0°C 45.7°F7.6°C 85% 3.5 mph SE5.6 kmh SE 3.5 mph5.6 kmh 29.40 in995.6 mb - 0.00 in0.0 mm 0.00 in0.0 mm
03:45 AM 50.1°F10.1°C 45.8°F7.7°C 85% 3.5 mph ESE5.6 kmh ESE 3.5 mph5.6 kmh 29.40 in995.6 mb - 0.00 in0.0 mm 0.00 in0.0 mm
03:40 AM 50.2°F10.1°C 45.8°F7.7°C 85% 4.6 mph E7.4 kmh E 6.9 mph11.1 kmh 29.40 in995.6 mb - 0.00 in0.0 mm 0.00 in0.0 mm
03:35 AM 50.3°F10.2°C 45.9°F7.7°C 85% 5.8 mph E9.3 kmh E 8.1 mph13.0 kmh 29.40 in995.6 mb - 0.00 in0.0 mm 0.00 in0.0 mm
03:30 AM 50.3°F10.2°C 46.0°F7.8°C 85% 4.6 mph ESE7.4 kmh ESE 5.8 mph9.3 kmh 29.40 in995.6 mb - 0.00 in0.0 mm 0.00 in0.0 mm
03:25 AM 50.4°F10.2°C 46.1°F7.8°C 85% 5.8 mph E9.3 kmh E 8.1 mph13.0 kmh 29.40 in995.6 mb - 0.00 in0.0 mm 0.00 in0.0 mm
03:20 AM 50.5°F10.3°C 45.8°F7.7°C 84% 3.5 mph SE5.6 kmh SE 5.8 mph9.3 kmh 29.40 in995.6 mb - 0.00 in0.0 mm 0.00 in0.0 mm
03:15 AM 50.6°F10.3°C 45.9°F7.7°C 84% 5.8 mph ESE9.3 kmh ESE 8.1 mph13.0 kmh 29.40 in995.6 mb - 0.00 in0.0 mm 0.00 in0.0 mm
03:10 AM 50.6°F10.3°C 46.0°F7.8°C 84% 3.5 mph E5.6 kmh E 6.9 mph11.1 kmh 29.40 in995.6 mb - 0.00 in0.0 mm 0.00 in0.0 mm
03:05 AM 50.6°F10.3°C 45.9°F7.7°C 84% 3.5 mph ESE5.6 kmh ESE 5.8 mph9.3 kmh 29.41 in995.9 mb - 0.00 in0.0 mm 0.00 in0.0 mm
03:00 AM 50.7°F10.4°C 46.0°F7.8°C 84% 4.6 mph E7.4 kmh E 5.8 mph9.3 kmh 29.41 in995.9 mb - 0.00 in0.0 mm 0.00 in0.0 mm
02:55 AM 50.8°F10.4°C 46.1°F7.8°C 84% 3.5 mph ESE5.6 kmh ESE 6.9 mph11.1 kmh 29.41 in995.9 mb - 0.00 in0.0 mm 0.00 in0.0 mm
02:50 AM 50.7°F10.4°C 46.0°F7.8°C 84% 4.6 mph E7.4 kmh E 5.8 mph9.3 kmh 29.41 in995.9 mb - 0.00 in0.0 mm 0.00 in0.0 mm
02:45 AM 50.6°F10.3°C 45.9°F7.7°C 84% 5.8 mph E9.3 kmh E 6.9 mph11.1 kmh 29.41 in995.9 mb - 0.00 in0.0 mm 0.00 in0.0 mm
02:40 AM 50.5°F10.3°C 45.8°F7.7°C 84% 4.6 mph ESE7.4 kmh ESE 6.9 mph11.1 kmh 29.42 in996.3 mb - 0.00 in0.0 mm 0.00 in0.0 mm
02:35 AM 50.5°F10.3°C 45.8°F7.7°C 84% 4.6 mph E7.4 kmh E 5.8 mph9.3 kmh 29.42 in996.3 mb - 0.00 in0.0 mm 0.00 in0.0 mm
02:30 AM 50.4°F10.2°C 45.7°F7.6°C 84% 4.6 mph E7.4 kmh E 8.1 mph13.0 kmh 29.42 in996.3 mb - 0.00 in0.0 mm 0.00 in0.0 mm
02:25 AM 50.3°F10.2°C 45.6°F7.6°C 84% 5.8 mph ESE9.3 kmh ESE 6.9 mph11.1 kmh 29.43 in996.6 mb - 0.00 in0.0 mm 0.00 in0.0 mm
02:20 AM 50.2°F10.1°C 45.5°F7.5°C 84% 5.8 mph E9.3 kmh E 5.8 mph9.3 kmh 29.43 in996.6 mb - 0.00 in0.0 mm 0.00 in0.0 mm
02:15 AM 50.2°F10.1°C 45.5°F7.5°C 84% 3.5 mph SE5.6 kmh SE 3.5 mph5.6 kmh 29.43 in996.6 mb - 0.00 in0.0 mm 0.00 in0.0 mm
02:10 AM 50.2°F10.1°C 45.9°F7.7°C 85% 4.6 mph ESE7.4 kmh ESE 6.9 mph11.1 kmh 29.43 in996.6 mb - 0.00 in0.0 mm 0.00 in0.0 mm
02:05 AM 50.2°F10.1°C 45.6°F7.6°C 84% 4.6 mph ESE7.4 kmh ESE 5.8 mph9.3 kmh 29.43 in996.6 mb - 0.00 in0.0 mm 0.00 in0.0 mm
02:00 AM 50.2°F10.1°C 45.9°F7.7°C 85% 4.6 mph E7.4 kmh E 8.1 mph13.0 kmh 29.43 in996.6 mb - 0.00 in0.0 mm 0.00 in0.0 mm
01:55 AM 50.3°F10.2°C 45.6°F7.6°C 84% 4.6 mph E7.4 kmh E 9.2 mph14.8 kmh 29.44 in997.0 mb - 0.00 in0.0 mm 0.00 in0.0 mm
01:50 AM 50.3°F10.2°C 45.6°F7.6°C 84% 4.6 mph ESE7.4 kmh ESE 5.8 mph9.3 kmh 29.44 in997.0 mb - 0.00 in0.0 mm 0.00 in0.0 mm
01:45 AM 50.3°F10.2°C 45.6°F7.6°C 84% 5.8 mph E9.3 kmh E 8.1 mph13.0 kmh 29.44 in997.0 mb - 0.00 in0.0 mm 0.00 in0.0 mm
01:40 AM 50.3°F10.2°C 45.6°F7.6°C 84% 5.8 mph E9.3 kmh E 9.2 mph14.8 kmh 29.44 in997.0 mb - 0.00 in0.0 mm 0.00 in0.0 mm
01:35 AM 50.4°F10.2°C 45.7°F7.6°C 84% 5.8 mph E9.3 kmh E 10.4 mph16.7 kmh 29.45 in997.3 mb - 0.00 in0.0 mm 0.00 in0.0 mm
01:30 AM 50.5°F10.3°C 45.8°F7.7°C 84% 6.9 mph ESE11.1 kmh ESE 9.2 mph14.8 kmh 29.45 in997.3 mb - 0.00 in0.0 mm 0.00 in0.0 mm
01:25 AM 50.4°F10.2°C 45.7°F7.6°C 84% 5.8 mph E9.3 kmh E 8.1 mph13.0 kmh 29.45 in997.3 mb - 0.00 in0.0 mm 0.00 in0.0 mm
01:20 AM 50.4°F10.2°C 45.7°F7.6°C 84% 4.6 mph ESE7.4 kmh ESE 8.1 mph13.0 kmh 29.45 in997.3 mb - 0.00 in0.0 mm 0.00 in0.0 mm
01:15 AM 50.3°F10.2°C 45.6°F7.6°C 84% 4.6 mph E7.4 kmh E 10.4 mph16.7 kmh 29.45 in997.3 mb - 0.00 in0.0 mm 0.00 in0.0 mm
01:10 AM 50.4°F10.2°C 45.7°F7.6°C 84% 4.6 mph SE7.4 kmh SE 4.6 mph7.4 kmh 29.45 in997.3 mb - 0.00 in0.0 mm 0.00 in0.0 mm
01:05 AM 50.3°F10.2°C 45.6°F7.6°C 84% 4.6 mph E7.4 kmh E 6.9 mph11.1 kmh 29.45 in997.3 mb - 0.00 in0.0 mm 0.00 in0.0 mm
01:00 AM 50.3°F10.2°C 45.6°F7.6°C 84% 5.8 mph E9.3 kmh E 9.2 mph14.8 kmh 29.45 in997.3 mb - 0.00 in0.0 mm 0.00 in0.0 mm
12:55 AM 50.3°F10.2°C 45.7°F7.6°C 84% 5.8 mph E9.3 kmh E 8.1 mph13.0 kmh 29.46 in997.6 mb - 0.00 in0.0 mm 0.00 in0.0 mm
12:50 AM 50.4°F10.2°C 45.7°F7.6°C 84% 5.8 mph ESE9.3 kmh ESE 9.2 mph14.8 kmh 29.46 in997.6 mb - 0.00 in0.0 mm 0.00 in0.0 mm
12:45 AM 50.4°F10.2°C 45.7°F7.6°C 84% 5.8 mph ESE9.3 kmh ESE 8.1 mph13.0 kmh 29.46 in997.6 mb - 0.00 in0.0 mm 0.00 in0.0 mm
12:40 AM 50.5°F10.3°C 45.8°F7.7°C 84% 3.5 mph E5.6 kmh E 6.9 mph11.1 kmh 29.46 in997.6 mb - 0.00 in0.0 mm 0.00 in0.0 mm
12:35 AM 50.4°F10.2°C 45.7°F7.6°C 84% 4.6 mph E7.4 kmh E 8.1 mph13.0 kmh 29.46 in997.6 mb - 0.00 in0.0 mm 0.00 in0.0 mm
12:30 AM 50.3°F10.2°C 46.0°F7.8°C 85% 4.6 mph E7.4 kmh E 6.9 mph11.1 kmh 29.46 in997.6 mb - 0.00 in0.0 mm 0.00 in0.0 mm
12:25 AM 50.2°F10.1°C 45.9°F7.7°C 85% 5.8 mph E9.3 kmh E 6.9 mph11.1 kmh 29.46 in997.6 mb - 0.00 in0.0 mm 0.00 in0.0 mm
12:20 AM 50.1°F10.1°C 45.8°F7.7°C 85% 5.8 mph E9.3 kmh E 9.2 mph14.8 kmh 29.46 in997.6 mb - 0.00 in0.0 mm 0.00 in0.0 mm
12:15 AM 50.1°F10.1°C 45.7°F7.6°C 85% 5.8 mph E9.3 kmh E 6.9 mph11.1 kmh 29.47 in998.0 mb - 0.00 in0.0 mm 0.00 in0.0 mm
12:10 AM 50.0°F10.0°C 45.7°F7.6°C 85% 3.5 mph E5.6 kmh E 4.6 mph7.4 kmh 29.47 in998.0 mb - 0.00 in0.0 mm 0.00 in0.0 mm
12:05 AM 49.9°F9.9°C 45.6°F7.6°C 85% 3.5 mph E5.6 kmh E 3.5 mph5.6 kmh 29.47 in998.0 mb - 0.00 in0.0 mm 0.00 in0.0 mm
12:00 AM 49.9°F9.9°C 45.9°F7.7°C 86% 4.6 mph ESE7.4 kmh ESE 6.9 mph11.1 kmh 29.47 in998.0 mb - 0.00 in0.0 mm 0.00 in0.0 mm